Time;durP1;ratioP1;P1;durP2;ratioP2;P2;SDS_P1;SDS_P2;PMS_P1;PMS_P2;Temp;Humidity;BMP_temperature;BMP_pressure;BME280_temperature;BME280_humidity;BME280_pressure;Samples;Min_cycle;Max_cycle;Signal;HPM_P1;HPM_P2
2022/04/17 00:01:10;;;;;;;5.60;3.05;;;;;;;4.72;83.90;98025.59;1678999;85;21089;-83
2022/04/17 00:03:38;;;;;;;3.58;2.65;;;;;;;4.70;83.57;98020.34;1678859;85;21101;-83
2022/04/17 00:06:06;;;;;;;4.67;2.55;;;;;;;4.67;83.45;98024.75;1678683;85;21422;-83
2022/04/17 00:08:33;;;;;;;5.47;3.42;;;;;;;4.67;84.19;98022.13;1678991;85;21053;-83
2022/04/17 00:11:01;;;;;;;4.20;2.70;;;;;;;4.67;83.77;98026.06;1679079;85;20986;-83
2022/04/17 00:13:28;;;;;;;3.33;2.98;;;;;;;4.69;83.64;98030.42;1679061;85;21045;-82
2022/04/17 00:15:55;;;;;;;4.17;3.00;;;;;;;4.67;83.54;98024.75;1676910;85;21018;-83
2022/04/17 00:18:22;;;;;;;5.03;3.60;;;;;;;4.67;83.91;98028.69;1668289;86;21028;-83
2022/04/17 00:20:48;;;;;;;7.17;3.30;;;;;;;4.71;83.82;98026.48;1668274;86;21023;-83
2022/04/17 00:23:15;;;;;;;4.78;2.95;;;;;;;4.73;84.23;98019.45;1651552;87;21417;-83
2022/04/17 00:25:42;;;;;;;4.53;3.02;;;;;;;4.71;84.10;98022.54;1668196;86;21043;-83
2022/04/17 00:28:10;;;;;;;4.90;3.05;;;;;;;4.68;83.85;98019.49;1668661;86;20968;-83
2022/04/17 00:30:36;;;;;;;4.55;2.98;;;;;;;4.70;83.83;98019.49;1668620;86;21051;-83
2022/04/17 00:33:03;;;;;;;3.95;3.00;;;;;;;4.70;84.69;98023.42;1669730;86;21031;-81
2022/04/17 00:35:30;;;;;;;5.72;3.52;;;;;;;4.68;83.96;98022.55;1654672;85;21027;-83
2022/04/17 00:37:56;;;;;;;5.10;3.55;;;;;;;4.70;84.01;98015.55;1671018;82;21036;-82
2022/04/17 00:40:23;;;;;;;4.17;2.70;;;;;;;4.70;84.16;98015.55;1652551;87;21008;-82
2022/04/17 00:42:50;;;;;;;4.40;3.15;;;;;;;4.70;83.93;98007.67;1668571;85;21020;-83
2022/04/17 00:45:17;;;;;;;4.47;3.20;;;;;;;4.69;84.04;98009.88;1668518;86;21402;-82
2022/04/17 00:47:44;;;;;;;4.40;3.10;;;;;;;4.69;84.25;98011.19;1651678;87;21104;-82
2022/04/17 00:50:12;;;;;;;4.65;3.42;;;;;;;4.65;83.90;98006.38;1668438;85;21009;-82
2022/04/17 00:52:39;;;;;;;4.22;2.92;;;;;;;4.62;84.25;98003.33;1670887;83;21067;-82
2022/04/17 00:55:09;;;;;;;4.70;3.20;;;;;;;4.58;83.85;97990.23;1670213;86;21727;-82
2022/04/17 00:57:36;;;;;;;4.67;3.33;;;;;;;4.52;83.73;97992.91;1670162;86;21043;-82
2022/04/17 01:00:05;;;;;;;4.15;3.25;;;;;;;4.49;83.61;97999.05;1670010;85;21461;-82
2022/04/17 01:02:32;;;;;;;4.83;3.20;;;;;;;4.47;83.70;98001.67;1670155;85;21052;-82
2022/04/17 01:04:59;;;;;;;5.95;3.22;;;;;;;4.41;83.63;97996.89;1670125;85;21446;-83
2022/04/17 01:07:26;;;;;;;5.55;3.40;;;;;;;4.41;83.69;98004.76;1669943;85;21063;-82
2022/04/17 01:09:54;;;;;;;4.62;3.02;;;;;;;4.31;83.15;98005.22;1670032;86;21043;-82
2022/04/17 01:12:21;;;;;;;4.50;3.30;;;;;;;4.27;83.45;98003.52;1669949;85;21482;-82
2022/04/17 01:14:48;;;;;;;4.12;3.15;;;;;;;4.28;83.31;98006.11;1670098;86;21008;-82
2022/04/17 01:17:15;;;;;;;5.05;3.30;;;;;;;4.21;83.37;98003.09;1663687;85;21422;-82
2022/04/17 01:19:41;;;;;;;4.37;3.10;;;;;;;4.22;83.48;98006.14;1658467;86;21056;-82
2022/04/17 01:22:11;;;;;;;5.35;3.50;;;;;;;4.24;83.66;98008.34;1658466;86;21065;-82
2022/04/17 01:27:26;;;;;;;3.80;3.20;;;;;;;4.25;83.88;98013.13;1658498;86;21064;-81
2022/04/17 01:29:54;;;;;;;6.08;3.45;;;;;;;4.26;84.00;98009.62;1658409;86;21041;-82
2022/04/17 01:32:22;;;;;;;5.67;2.95;;;;;;;4.28;83.82;98007.42;1658324;86;21088;-82
2022/04/17 01:34:49;;;;;;;4.85;3.47;;;;;;;4.31;83.80;98010.05;1658343;86;21053;-83
2022/04/17 01:37:21;;;;;;;6.17;3.27;;;;;;;4.26;83.01;98011.81;1658516;86;21048;-83
2022/04/17 01:39:46;;;;;;;3.62;3.12;;;;;;;4.23;83.67;98008.77;1657701;86;21080;-83
2022/04/17 01:42:13;;;;;;;3.92;2.70;;;;;;;4.21;83.42;98007.03;1658464;86;21064;-83
2022/04/17 01:44:40;;;;;;;4.80;3.70;;;;;;;4.19;83.34;98007.48;1658594;86;21046;-83
2022/04/17 01:47:06;;;;;;;4.12;2.98;;;;;;;4.17;83.77;98005.29;1658550;86;21486;-83
2022/04/17 01:49:33;;;;;;;4.37;3.10;;;;;;;4.19;83.71;98001.78;1658619;86;21044;-83
2022/04/17 01:52:05;;;;;;;5.10;3.25;;;;;;;4.23;83.82;98011.39;1658560;86;21048;-82
2022/04/17 01:54:32;;;;;;;3.90;3.10;;;;;;;4.26;83.96;97998.70;1657774;86;21041;-81
2022/04/17 01:56:58;;;;;;;4.53;3.25;;;;;;;4.25;83.18;98003.52;1658646;86;21041;-80
2022/04/17 01:59:25;;;;;;;5.42;3.65;;;;;;;4.20;83.26;97998.27;1658535;86;21044;-82
2022/04/17 02:01:52;;;;;;;4.60;3.05;;;;;;;4.14;83.57;97998.30;1658513;86;21028;-82
2022/04/17 02:04:19;;;;;;;5.70;3.22;;;;;;;4.02;84.27;98000.98;1658603;86;21045;-82
2022/04/17 02:06:47;;;;;;;5.80;3.83;;;;;;;3.95;83.25;98007.53;1658610;86;21024;-82
2022/04/17 02:09:16;;;;;;;5.15;3.50;;;;;;;3.94;83.10;98008.42;1658518;86;21016;-82
2022/04/17 02:11:45;;;;;;;5.58;3.55;;;;;;;3.85;83.54;98006.27;1658521;86;21080;-82
2022/04/17 02:14:12;;;;;;;6.15;3.83;;;;;;;3.83;83.44;98012.83;1658609;86;21028;-82
2022/04/17 02:16:39;;;;;;;5.03;3.45;;;;;;;3.76;83.95;97996.66;1658700;85;21072;-82
2022/04/17 02:19:06;;;;;;;6.72;4.12;;;;;;;3.68;85.51;97999.30;1658703;86;21080;-82
2022/04/17 02:21:33;;;;;;;7.35;4.00;;;;;;;3.64;84.02;97992.30;1658513;86;21482;-82
2022/04/17 02:24:00;;;;;;;5.67;3.65;;;;;;;3.54;85.95;97996.70;1658488;86;21012;-82
2022/04/17 02:26:27;;;;;;;4.85;3.87;;;;;;;3.43;86.01;98003.26;1658562;86;20993;-81
2022/04/17 02:28:56;;;;;;;5.50;3.75;;;;;;;3.32;87.04;98003.25;1658648;86;21076;-82
2022/04/17 02:31:24;;;;;;;5.90;3.83;;;;;;;3.26;87.01;97996.72;1658441;86;21478;-82
2022/04/17 02:33:51;;;;;;;4.45;3.80;;;;;;;3.27;85.82;97997.14;1658583;86;22178;-80
2022/04/17 02:36:20;;;;;;;7.58;4.60;;;;;;;3.28;86.97;98003.70;1658589;86;21502;-79
2022/04/17 02:38:47;;;;;;;8.40;4.25;;;;;;;3.26;86.73;98001.53;1658513;86;21040;-81
2022/04/17 02:41:14;;;;;;;6.12;4.05;;;;;;;3.28;87.01;97997.61;1658665;86;20990;-80
2022/04/17 02:43:44;;;;;;;7.55;3.67;;;;;;;3.34;86.53;98007.19;1658598;86;21045;-81
2022/04/17 02:46:09;;;;;;;5.62;3.77;;;;;;;3.38;86.46;97999.77;1658046;86;21014;-81
2022/04/17 02:48:36;;;;;;;5.72;4.10;;;;;;;3.45;86.64;97998.91;1658772;86;21036;-81
2022/04/17 02:51:03;;;;;;;5.37;3.70;;;;;;;3.50;86.34;97993.23;1658466;86;21037;-81
2022/04/17 02:53:33;;;;;;;5.45;4.10;;;;;;;3.55;86.18;97995.41;1653013;86;21000;-81
2022/04/17 02:56:00;;;;;;;5.40;3.45;;;;;;;3.63;86.11;97995.81;1630957;88;21021;-82
2022/04/17 02:58:26;;;;;;;6.65;3.62;;;;;;;3.71;86.06;97995.38;1630816;88;21039;-81
2022/04/17 03:06:23;;;;;;;5.40;3.90;;;;;;;3.90;85.67;97996.19;1630994;87;21067;-82
2022/04/17 03:08:50;;;;;;;6.55;3.92;;;;;;;3.95;85.41;98002.75;1630914;88;21040;-82
2022/04/17 03:11:16;;;;;;;5.03;3.77;;;;;;;3.83;84.37;98001.88;1632384;88;21067;-81
2022/04/17 03:13:43;;;;;;;5.33;3.85;;;;;;;3.76;84.44;98002.78;1633418;87;21056;-81
2022/04/17 03:16:11;;;;;;;6.80;3.92;;;;;;;3.64;84.88;97998.44;1633369;87;21057;-81
2022/04/17 03:18:37;;;;;;;5.37;4.30;;;;;;;3.67;84.91;97997.55;1636536;87;21055;-81
2022/04/17 03:21:04;;;;;;;6.65;4.53;;;;;;;3.67;85.15;98001.06;1669364;86;20980;-79
2022/04/17 03:23:31;;;;;;;5.42;4.20;;;;;;;3.68;84.66;98005.42;1668621;85;21500;-81
2022/04/17 03:25:58;;;;;;;5.95;4.70;;;;;;;3.65;84.43;97996.70;1668738;86;21059;-80
2022/04/17 03:28:24;;;;;;;5.10;3.80;;;;;;;3.66;84.50;98007.16;1668825;86;21481;-80
2022/04/17 03:30:50;;;;;;;5.75;4.30;;;;;;;3.68;84.57;98004.54;1668889;85;20995;-80
2022/04/17 03:33:17;;;;;;;5.78;4.62;;;;;;;3.67;84.79;98008.05;1668590;86;21012;-80
2022/04/17 03:35:44;;;;;;;5.58;3.85;;;;;;;3.70;84.75;98008.90;1668685;86;21417;-80
2022/04/17 03:38:10;;;;;;;5.40;4.00;;;;;;;3.72;84.70;98012.84;1668678;86;21080;-80
2022/04/17 03:40:37;;;;;;;5.65;4.00;;;;;;;3.73;84.50;98008.48;1668540;86;21445;-81
2022/04/17 03:43:05;;;;;;;7.05;4.55;;;;;;;3.75;84.35;98009.34;1668816;86;21010;-81
2022/04/17 03:45:32;;;;;;;6.90;4.10;;;;;;;3.77;84.43;98011.08;1668673;86;21030;-81
2022/04/17 03:47:59;;;;;;;6.87;4.70;;;;;;;3.80;84.65;98018.95;1668416;86;21031;-80
2022/04/17 03:50:26;;;;;;;5.83;4.33;;;;;;;3.79;84.65;98021.11;1668900;86;21011;-81
2022/04/17 03:52:53;;;;;;;6.75;4.72;;;;;;;3.78;84.49;98016.75;1668820;86;21023;-79
2022/04/17 03:55:20;;;;;;;5.12;4.05;;;;;;;3.77;84.52;98022.88;1667213;86;21083;-80
2022/04/17 03:57:46;;;;;;;6.40;4.70;;;;;;;3.74;84.12;98024.17;1667313;86;21090;-81
2022/04/17 04:00:14;;;;;;;5.67;4.40;;;;;;;3.74;84.12;98028.11;1667288;86;21413;-80
2022/04/17 04:02:43;;;;;;;7.20;4.75;;;;;;;3.73;83.97;98039.94;1667249;86;21051;-81
2022/04/17 04:05:11;;;;;;;8.68;4.70;;;;;;;3.65;84.14;98027.70;1667173;86;21063;-81
2022/04/17 04:07:39;;;;;;;5.83;4.70;;;;;;;3.63;84.52;98033.81;1667332;86;21027;-81
2022/04/17 04:10:08;;;;;;;7.15;4.87;;;;;;;3.60;84.30;98032.49;1667178;86;21086;-82
2022/04/17 04:12:37;;;;;;;5.60;4.15;;;;;;;3.62;84.13;98034.70;1691124;85;21045;-82
2022/04/17 04:15:05;;;;;;;5.22;4.50;;;;;;;3.61;84.61;98034.27;1694989;85;21044;-82
2022/04/17 04:17:34;;;;;;;7.20;5.03;;;;;;;3.61;84.11;98032.95;1694429;85;21075;-83
2022/04/17 04:20:02;;;;;;;6.47;5.10;;;;;;;3.62;84.37;98030.34;1667194;85;21001;-83
2022/04/17 04:22:29;;;;;;;5.45;4.33;;;;;;;3.66;84.13;98039.06;1667055;86;20981;-82
2022/04/17 04:24:56;;;;;;;6.20;4.75;;;;;;;3.56;83.55;98031.20;1667308;86;21728;-82
2022/04/17 04:30:09;;;;;;;6.20;4.37;;;;;;;3.63;84.00;98040.37;1667109;85;21044;-82
2022/04/17 04:32:36;;;;;;;5.97;4.65;;;;;;;3.61;83.90;98036.43;1667173;86;21054;-82
2022/04/17 04:35:04;;;;;;;6.90;5.00;;;;;;;3.64;84.17;98039.06;1667222;86;21052;-82
2022/04/17 04:37:31;;;;;;;6.97;5.20;;;;;;;3.68;83.99;98032.06;1667113;85;22128;-81
2022/04/17 04:39:58;;;;;;;5.72;4.97;;;;;;;3.70;83.76;98039.50;1667147;86;21064;-82
2022/04/17 04:42:25;;;;;;;6.60;4.87;;;;;;;3.65;83.66;98039.48;1667291;86;21406;-80
2022/04/17 04:46:06;;;;;;;6.10;5.05;;;;;;;3.65;83.58;98042.11;1666928;85;21073;-81
2022/04/17 04:47:20;;;;;;;7.60;4.90;;;;;;;3.58;83.84;98049.55;1663655;86;21008;-81
2022/04/17 04:49:47;;;;;;;8.40;5.28;;;;;;;3.58;83.67;98042.12;1667283;86;21076;-81
2022/04/17 04:52:14;;;;;;;13.10;7.95;;;;;;;3.61;83.58;98051.30;1667148;86;21060;-81
2022/04/17 04:54:41;;;;;;;8.50;5.92;;;;;;;3.64;83.49;98044.73;1667372;86;22262;-81
2022/04/17 04:57:07;;;;;;;6.55;5.20;;;;;;;3.69;83.47;98054.34;1666954;86;21036;-81
2022/04/17 04:59:34;;;;;;;5.92;4.55;;;;;;;3.70;82.93;98046.05;1667244;85;21080;-81
2022/04/17 05:02:01;;;;;;;6.55;5.20;;;;;;;3.70;83.03;98051.30;1667523;85;21059;-80
2022/04/17 05:04:29;;;;;;;5.92;4.62;;;;;;;3.66;82.57;98050.41;1667240;86;21371;-81
2022/04/17 05:06:55;;;;;;;6.97;5.10;;;;;;;3.67;82.62;98053.48;1667186;86;21036;-81
2022/04/17 05:09:22;;;;;;;7.15;4.85;;;;;;;3.74;82.80;98053.47;1667177;86;20992;-81
2022/04/17 05:11:48;;;;;;;6.83;5.05;;;;;;;3.81;83.12;98045.59;1667087;86;21040;-82
2022/04/17 05:14:18;;;;;;;5.80;4.90;;;;;;;3.88;83.08;98050.39;1667327;85;20981;-84
2022/04/17 05:16:43;;;;;;;6.70;5.22;;;;;;;3.94;82.62;98049.48;1667040;85;21053;-83
2022/04/17 05:19:27;;;;;;;5.50;4.55;;;;;;;4.03;82.91;98048.62;1667355;85;21025;-82
2022/04/17 05:21:57;;;;;;;5.12;4.30;;;;;;;4.09;82.91;98053.84;1666406;85;21049;-82
2022/04/17 05:24:20;;;;;;;6.20;4.70;;;;;;;4.24;83.18;98059.49;1667116;85;21033;-82
2022/04/17 05:26:47;;;;;;;5.70;4.33;;;;;;;4.31;82.35;98051.14;1667275;86;21013;-82
2022/04/17 05:29:13;;;;;;;5.30;4.30;;;;;;;4.41;82.80;98054.19;1667376;85;21088;-82
2022/04/17 05:31:40;;;;;;;6.08;4.40;;;;;;;4.48;82.41;98066.39;1667197;85;21021;-82
2022/04/17 05:34:06;;;;;;;5.55;4.78;;;;;;;4.53;82.21;98063.73;1667206;85;21076;-84
2022/04/17 05:36:33;;;;;;;6.65;5.00;;;;;;;4.58;81.91;98058.06;1667181;85;21076;-84
2022/04/17 05:39:00;;;;;;;5.30;4.70;;;;;;;4.66;82.13;98064.59;1667319;85;21073;-84
2022/04/17 05:41:27;;;;;;;5.72;4.95;;;;;;;4.74;81.48;98051.42;1667280;85;21076;-81
2022/04/17 05:43:59;;;;;;;5.92;4.92;;;;;;;4.75;81.07;98051.41;1667282;85;21458;-83
2022/04/17 05:46:29;;;;;;;5.92;4.53;;;;;;;4.76;78.11;98052.27;1667139;85;20985;-81
2022/04/17 05:48:57;;;;;;;6.78;4.50;;;;;;;4.71;80.15;98052.30;1667220;85;21029;-82
2022/04/17 05:51:24;;;;;;;6.40;4.95;;;;;;;4.73;80.04;98050.53;1667329;86;21085;-81
2022/04/17 05:53:50;;;;;;;5.62;4.83;;;;;;;4.79;79.39;98043.50;1667138;85;21010;-81
2022/04/17 05:56:17;;;;;;;7.33;5.00;;;;;;;4.83;79.85;98042.18;1664019;85;21481;-82
2022/04/17 05:58:44;;;;;;;6.62;5.20;;;;;;;4.86;78.35;98039.52;1664537;86;20977;-82
2022/04/17 06:01:11;;;;;;;6.65;5.37;;;;;;;4.82;78.02;98038.24;1664351;85;21513;-82
2022/04/17 06:03:37;;;;;;;13.60;8.10;;;;;;;4.75;77.67;98034.34;1664365;86;20974;-82
2022/04/17 06:06:05;;;;;;;10.78;6.60;;;;;;;4.80;77.72;98032.11;1664472;85;21065;-82
2022/04/17 06:08:32;;;;;;;8.55;5.60;;;;;;;4.83;77.80;98032.98;1664261;85;21014;-82
2022/04/17 06:10:59;;;;;;;6.85;5.33;;;;;;;4.77;76.08;98029.06;1664525;85;21081;-82
2022/04/17 06:13:26;;;;;;;8.18;5.35;;;;;;;4.78;76.91;98045.27;1664411;86;21037;-82
2022/04/17 06:15:52;;;;;;;6.45;5.35;;;;;;;4.78;77.09;98049.21;1664434;86;21081;-82
2022/04/17 06:18:19;;;;;;;6.37;5.42;;;;;;;4.75;74.87;98048.79;1664527;85;21011;-82
2022/04/17 06:20:45;;;;;;;6.35;5.15;;;;;;;4.78;75.44;98055.78;1664506;86;21041;-82
2022/04/17 06:23:13;;;;;;;7.17;5.28;;;;;;;4.79;76.43;98053.58;1664340;86;21034;-83
2022/04/17 06:25:39;;;;;;;7.58;5.05;;;;;;;4.75;72.26;98057.09;1664363;86;21097;-82
2022/04/17 06:28:07;;;;;;;6.65;5.00;;;;;;;4.68;74.25;98061.50;1664498;85;21034;-82
2022/04/17 06:30:33;;;;;;;13.62;9.15;;;;;;;4.65;74.18;98058.02;1664276;85;21074;-83
2022/04/17 06:33:00;;;;;;;6.37;4.95;;;;;;;4.66;74.80;98061.08;1664335;86;21018;-82
2022/04/17 06:35:26;;;;;;;7.40;4.65;;;;;;;4.58;73.37;98061.11;1664234;85;21482;-82
2022/04/17 06:38:02;;;;;;;5.60;4.80;;;;;;;4.53;73.06;98061.57;1664429;86;21058;-82
2022/04/17 06:40:33;;;;;;;7.28;5.33;;;;;;;4.52;74.16;98062.00;1664528;86;21497;-82
2022/04/17 06:43:05;;;;;;;7.10;4.80;;;;;;;4.58;73.59;98064.63;1664359;86;21022;-82
2022/04/17 06:45:36;;;;;;;5.95;4.78;;;;;;;4.59;73.65;98062.84;1664527;86;21491;-82
2022/04/17 06:48:22;;;;;;;6.85;5.05;;;;;;;4.61;74.22;98054.55;1664092;86;21086;-82
2022/04/17 06:50:51;;;;;;;6.25;4.42;;;;;;;4.64;73.19;98058.45;1665965;86;21038;-83
2022/04/17 06:53:18;;;;;;;6.28;4.42;;;;;;;4.67;74.01;98056.25;1666940;86;21032;-82
2022/04/17 06:55:47;;;;;;;6.25;4.70;;;;;;;4.77;73.80;98057.09;1642006;86;21085;-82
2022/04/17 06:58:20;;;;;;;6.22;4.47;;;;;;;4.84;73.23;98055.73;1664556;86;21046;-82
2022/04/17 07:00:48;;;;;;;5.85;4.80;;;;;;;4.80;72.78;98062.31;1664621;86;21074;-82
2022/04/17 07:03:15;;;;;;;5.12;4.28;;;;;;;4.83;72.44;98064.50;1664513;85;21081;-82
2022/04/17 07:05:43;;;;;;;6.53;4.62;;;;;;;4.89;72.49;98071.45;1664369;85;21058;-82
2022/04/17 07:08:10;;;;;;;7.28;4.95;;;;;;;4.95;72.99;98068.81;1664473;86;21070;-82
2022/04/17 07:10:39;;;;;;;5.67;4.40;;;;;;;5.02;71.37;98074.45;1664222;86;21002;-83
2022/04/17 07:13:08;;;;;;;4.92;4.42;;;;;;;5.10;72.41;98080.08;1664454;85;21062;-83
2022/04/17 07:15:35;;;;;;;5.17;4.35;;;;;;;5.12;71.41;98081.81;1664401;86;20994;-83
2022/04/17 07:18:01;;;;;;;5.65;4.33;;;;;;;5.21;70.75;98082.66;1664555;85;21093;-82
2022/04/17 07:20:28;;;;;;;5.40;4.50;;;;;;;5.26;71.66;98072.55;1664392;85;21006;-82
2022/04/17 07:22:55;;;;;;;6.08;4.28;;;;;;;5.38;70.00;98068.08;1664307;85;21448;-82
2022/04/17 07:25:22;;;;;;;6.53;4.17;;;;;;;5.43;69.26;98067.60;1664376;85;21046;-82
2022/04/17 07:27:51;;;;;;;6.80;4.53;;;;;;;5.47;70.44;98073.70;1664295;86;21496;-82
2022/04/17 07:30:24;;;;;;;4.50;3.85;;;;;;;5.51;70.13;98067.11;1664356;86;21022;-82
2022/04/17 07:32:54;;;;;;;5.17;4.37;;;;;;;5.65;70.22;98073.56;1664226;86;21519;-81
2022/04/17 07:35:22;;;;;;;5.67;4.37;;;;;;;5.79;67.70;98073.45;1664371;85;20986;-83
2022/04/17 07:37:55;;;;;;;5.60;4.45;;;;;;;5.76;67.03;98074.79;1664235;86;21038;-81
2022/04/17 07:40:27;;;;;;;5.37;4.20;;;;;;;5.86;67.41;98070.77;1664273;85;21054;-81
2022/04/17 07:42:58;;;;;;;5.40;4.17;;;;;;;5.98;67.78;98070.63;1664306;85;21018;-81
2022/04/17 07:45:26;;;;;;;5.92;4.35;;;;;;;5.91;66.41;98069.84;1639896;86;21066;-80
2022/04/17 07:47:53;;;;;;;4.47;3.70;;;;;;;5.94;65.39;98069.80;1664192;86;21141;-81
2022/04/17 07:50:27;;;;;;;6.25;4.40;;;;;;;5.95;65.70;98073.31;1672408;85;21024;-82
2022/04/17 07:52:54;;;;;;;4.83;4.20;;;;;;;6.05;66.09;98076.31;1688195;85;21422;-81
2022/04/17 07:55:22;;;;;;;5.25;3.95;;;;;;;6.15;67.25;98075.75;1695992;84;21052;-83
2022/04/17 07:57:56;;;;;;;5.20;4.25;;;;;;;6.25;66.65;98078.30;1705098;84;21009;-83
2022/04/17 08:00:22;;;;;;;4.28;3.87;;;;;;;6.28;65.50;98075.20;1703716;84;21021;-83
2022/04/17 08:02:53;;;;;;;5.87;4.20;;;;;;;6.16;65.63;98073.58;1705334;84;21438;-85
2022/04/17 08:05:19;;;;;;;4.87;4.30;;;;;;;6.22;66.23;98064.72;1705294;84;20961;-84
2022/04/17 08:07:45;;;;;;;6.80;4.28;;;;;;;6.40;66.63;98072.00;1707118;84;21402;-84
2022/04/17 08:10:14;;;;;;;6.25;4.20;;;;;;;6.50;65.15;98074.95;1672651;85;21119;-83
2022/04/17 08:12:44;;;;;;;4.83;4.03;;;;;;;6.55;62.21;98079.71;1699911;84;21089;-84
2022/04/17 08:15:11;;;;;;;4.85;4.17;;;;;;;6.43;62.36;98075.46;1706409;84;21049;-83
2022/04/17 08:17:38;;;;;;;5.03;4.20;;;;;;;6.50;63.12;98080.22;1700655;84;21010;-83
2022/04/17 08:20:07;;;;;;;5.67;4.10;;;;;;;6.51;63.52;98077.15;1700129;84;21033;-83
2022/04/17 08:22:35;;;;;;;5.87;4.47;;;;;;;6.52;64.10;98073.16;1704913;84;21085;-83
2022/04/17 08:25:04;;;;;;;4.08;3.20;;;;;;;6.57;64.48;98071.80;1708090;84;21072;-83
2022/04/17 08:27:31;;;;;;;4.33;3.80;;;;;;;6.67;65.14;98068.59;1707804;84;21026;-84
2022/04/17 08:30:01;;;;;;;4.28;3.52;;;;;;;6.68;64.39;98066.41;1700439;84;20979;-82
2022/04/17 08:32:28;;;;;;;5.10;3.70;;;;;;;6.68;63.49;98065.95;1707997;84;21018;-83
2022/04/17 08:34:54;;;;;;;3.62;3.33;;;;;;;6.76;60.56;98067.63;1704288;84;21094;-83
2022/04/17 08:37:21;;;;;;;5.00;4.40;;;;;;;6.83;62.90;98063.57;1704291;84;21406;-83
2022/04/17 08:39:48;;;;;;;3.60;2.98;;;;;;;6.89;59.95;98062.59;1699709;84;21018;-82
2022/04/17 08:42:16;;;;;;;3.75;3.15;;;;;;;6.97;60.28;98063.80;1707751;84;20999;-82
2022/04/17 08:44:42;;;;;;;4.72;3.22;;;;;;;7.06;58.65;98063.68;1679566;85;20947;-82
2022/04/17 08:47:09;;;;;;;3.95;3.00;;;;;;;7.11;57.98;98064.95;1679919;85;21082;-82
2022/04/17 08:49:38;;;;;;;3.72;3.15;;;;;;;7.13;54.67;98055.23;1679894;85;20991;-83
2022/04/17 08:52:08;;;;;;;3.52;2.92;;;;;;;7.16;57.28;98051.69;1679901;85;20999;-82
2022/04/17 08:54:37;;;;;;;4.12;3.02;;;;;;;7.22;57.45;98050.27;1680061;85;20986;-83
2022/04/17 08:57:04;;;;;;;3.70;3.10;;;;;;;7.25;58.15;98041.89;1656454;85;21103;-81
2022/04/17 08:59:32;;;;;;;4.17;3.27;;;;;;;7.35;57.12;98048.34;1654834;86;22114;-81
2022/04/17 09:02:10;;;;;;;3.50;3.20;;;;;;;7.44;56.97;98046.88;1682572;85;21001;-82
2022/04/17 09:04:38;;;;;;;4.83;3.10;;;;;;;7.50;56.72;98046.77;1654094;86;21072;-85
2022/04/17 09:07:12;;;;;;;3.62;3.20;;;;;;;7.52;55.18;98046.75;1664049;86;21025;-85
2022/04/17 09:09:51;;;;;;;3.33;2.77;;;;;;;7.60;55.39;98046.62;1680792;85;20998;-82
2022/04/17 09:12:26;;;;;;;3.30;3.00;;;;;;;7.67;56.62;98045.61;1680559;85;21037;-82
2022/04/17 09:14:57;;;;;;;3.40;3.10;;;;;;;7.74;56.63;98045.94;1680204;85;21116;-82
2022/04/17 09:17:37;;;;;;;3.58;3.08;;;;;;;7.83;56.17;98036.11;1677612;85;21585;-82
2022/04/17 09:20:04;;;;;;;4.35;3.45;;;;;;;7.89;56.50;98039.98;1653316;87;21440;-82
2022/04/17 09:22:49;;;;;;;3.52;3.22;;;;;;;7.91;55.63;98040.80;1679078;85;21055;-82
2022/04/17 09:25:16;;;;;;;3.40;2.92;;;;;;;7.96;54.16;98040.70;1677817;85;21020;-82
2022/04/17 09:28:07;;;;;;;4.65;3.02;;;;;;;7.96;54.16;98040.70;1654088;85;21032;-83
2022/04/17 09:30:40;;;;;;;4.40;3.30;;;;;;;8.01;54.48;98038.41;1653872;87;21080;-83
2022/04/17 09:33:09;;;;;;;3.55;2.85;;;;;;;8.04;54.25;98041.45;1654689;87;21091;-82
2022/04/17 09:35:37;;;;;;;5.08;3.08;;;;;;;8.02;53.97;98032.70;1668641;85;20993;-83
2022/04/17 09:38:07;;;;;;;5.10;3.58;;;;;;;7.97;53.09;98033.23;1649019;87;21057;-83
2022/04/17 09:40:36;;;;;;;6.45;3.42;;;;;;;7.95;54.22;98030.62;1638327;86;21466;-82
2022/04/17 09:43:15;;;;;;;12.15;8.65;;;;;;;7.90;54.00;98026.73;1642732;86;21032;-83
2022/04/17 09:46:05;;;;;;;4.75;4.20;;;;;;;7.86;54.35;98024.19;1676432;85;21397;-83
2022/04/17 09:48:36;;;;;;;3.92;3.33;;;;;;;7.83;53.34;98026.44;1647000;87;20983;-83
2022/04/17 09:51:27;;;;;;;3.83;3.42;;;;;;;7.78;53.29;98023.01;1666096;86;21052;-82
2022/04/17 09:54:06;;;;;;;4.03;2.80;;;;;;;7.80;53.63;98022.52;1660661;86;21044;-82
2022/04/17 09:56:41;;;;;;;3.80;3.10;;;;;;;7.85;52.72;98018.03;1682721;85;21112;-82
2022/04/17 09:59:23;;;;;;;4.15;3.27;;;;;;;7.75;50.02;98009.42;1694646;85;21056;-82
2022/04/17 10:01:54;;;;;;;3.37;3.08;;;;;;;7.81;53.08;98020.33;1695262;85;21000;-83
2022/04/17 10:04:24;;;;;;;3.15;2.77;;;;;;;7.83;51.98;98016.31;1695158;85;21430;-82
2022/04/17 10:06:57;;;;;;;3.85;3.45;;;;;;;7.82;52.24;98009.30;1695286;85;20969;-83
2022/04/17 10:09:24;;;;;;;4.95;3.00;;;;;;;7.84;52.66;98016.77;1695364;85;21079;-84
2022/04/17 10:11:52;;;;;;;3.95;3.10;;;;;;;7.86;51.87;98009.67;1689354;85;21020;-82
2022/04/17 10:14:19;;;;;;;4.17;3.65;;;;;;;7.89;52.51;98013.59;1679964;85;20978;-81
2022/04/17 10:16:48;;;;;;;3.25;2.95;;;;;;;7.97;52.45;98010.80;1670428;85;21022;-82
2022/04/17 10:19:24;;;;;;;4.28;3.30;;;;;;;8.04;50.48;98008.02;1692663;85;20985;-81
2022/04/17 10:21:47;;;;;;;3.80;3.00;;;;;;;8.13;52.78;98003.00;1692285;85;21048;-82
2022/04/17 10:24:19;;;;;;;3.77;3.37;;;;;;;8.24;51.90;97994.88;1691833;85;21580;-83
2022/04/17 10:26:50;;;;;;;3.20;2.90;;;;;;;8.33;50.14;97996.45;1688358;85;22226;-82
2022/04/17 10:29:43;;;;;;;3.55;3.25;;;;;;;8.42;50.53;97998.02;1683799;85;21021;-82
2022/04/17 10:32:35;;;;;;;3.65;3.15;;;;;;;8.50;49.94;97995.22;1665951;85;21068;-83
2022/04/17 10:35:40;;;;;;;3.25;2.95;;;;;;;8.54;50.57;97993.85;1691121;85;21135;-83
2022/04/17 10:38:31;;;;;;;2.98;2.70;;;;;;;8.77;50.59;97991.17;1693023;85;21072;-80
2022/04/17 10:41:12;;;;;;;3.40;3.10;;;;;;;9.03;50.28;97982.20;1694224;85;21123;-82
2022/04/17 10:43:53;;;;;;;2.97;2.70;;;;;;;9.41;49.84;97972.47;1671673;85;21017;-84
2022/04/17 10:46:25;;;;;;;3.37;3.08;;;;;;;9.85;48.81;97967.38;1666326;86;21085;-83
2022/04/17 10:49:05;;;;;;;3.95;3.05;;;;;;;10.23;46.78;97965.89;1680711;85;21072;-84
2022/04/17 10:51:38;;;;;;;3.90;3.08;;;;;;;10.21;46.54;97961.96;1693200;84;21093;-85
2022/04/17 10:54:14;;;;;;;3.35;3.05;;;;;;;10.11;43.29;97952.55;1693186;85;21167;-85
2022/04/17 10:56:57;;;;;;;3.67;3.37;;;;;;;9.73;43.15;97954.02;1691359;84;21056;-85
2022/04/17 10:59:31;;;;;;;3.42;3.00;;;;;;;9.70;46.09;97958.06;1689095;85;21096;-84
2022/04/17 11:02:10;;;;;;;4.22;3.40;;;;;;;9.55;46.25;97953.59;1661617;85;21012;-84
2022/04/17 11:04:54;;;;;;;4.10;3.60;;;;;;;9.45;46.29;97950.77;1665924;85;21080;-83
2022/04/17 11:07:28;;;;;;;7.40;5.60;;;;;;;9.28;46.55;97949.88;1664606;86;21418;-84
2022/04/17 11:10:22;;;;;;;3.47;3.17;;;;;;;9.16;46.78;97948.41;1660386;86;21092;-84
2022/04/17 11:12:57;;;;;;;3.60;3.30;;;;;;;9.07;46.54;97946.86;1664189;86;21048;-83
2022/04/17 11:15:28;;;;;;;3.92;3.08;;;;;;;9.01;45.85;97950.98;1662519;85;21102;-84
2022/04/17 11:17:58;;;;;;;3.50;2.70;;;;;;;8.95;46.54;97941.41;1661807;85;21043;-85
2022/04/17 11:20:25;;;;;;;4.40;3.30;;;;;;;9.00;47.41;97934.72;1663907;86;21086;-85
2022/04/17 11:22:52;;;;;;;3.83;3.42;;;;;;;9.07;47.03;97937.61;1641713;86;21002;-85
2022/04/17 11:25:34;;;;;;;3.25;2.95;;;;;;;9.11;46.82;97941.45;1662897;85;21044;-86
2022/04/17 11:28:03;;;;;;;4.83;3.12;;;;;;;9.21;47.29;97938.58;1636628;86;21083;-92
2022/04/17 11:30:44;;;;;;;3.00;2.72;;;;;;;9.35;47.15;97932.48;1639112;86;21109;-91
2022/04/17 11:33:17;;;;;;;2.87;2.55;;;;;;;10.09;46.32;97932.72;1640938;86;21089;-90
2022/04/17 11:35:44;;;;;;;3.17;2.72;;;;;;;11.74;44.97;97919.59;1650728;86;21068;-88
2022/04/17 11:38:11;;;;;;;2.98;2.72;;;;;;;12.32;42.69;97917.53;1656752;86;21048;-87
2022/04/17 11:40:44;;;;;;;2.50;2.30;;;;;;;12.39;39.95;97911.53;1658246;86;21464;-89
2022/04/17 11:43:22;;;;;;;;;;;;;;;;;;;;;
2022/04/17 11:45:48;;;;;;;3.35;2.83;;;;;;;12.44;39.13;97921.97;1656276;85;21462;-89
2022/04/17 11:48:18;;;;;;;2.92;2.37;;;;;;;12.13;38.61;97912.91;1650695;85;20997;-85
2022/04/17 11:50:48;;;;;;;3.70;2.55;;;;;;;11.99;36.46;97913.84;1663684;86;21095;-87
2022/04/17 11:53:16;;;;;;;2.40;2.20;;;;;;;11.94;37.62;97914.03;1663452;86;21087;-85
2022/04/17 11:55:45;;;;;;;2.50;2.30;;;;;;;12.07;36.42;97914.47;1665840;85;21438;-85
2022/04/17 11:58:28;;;;;;;5.33;3.50;;;;;;;12.88;37.14;97894.08;1676053;85;22216;-84
2022/04/17 12:01:01;;;;;;;3.67;2.58;;;;;;;14.10;36.94;97898.28;1668588;85;21083;-84
2022/04/17 12:03:42;;;;;;;5.22;2.90;;;;;;;15.10;35.02;97889.63;1690415;85;21397;-84